sensor_id;sensor_type;location;lat;lon;timestamp;pressure;altitude;pressure_sealevel;temperature;humidity
50702;BME280;36670;50.094;8.496;2023-03-14T00:02:08;98402.72;;;12.03;75.41
50702;BME280;36670;50.094;8.496;2023-03-14T00:04:33;98404.38;;;12.04;75.07
50702;BME280;36670;50.094;8.496;2023-03-14T00:06:58;98401.19;;;12.11;75.53
50702;BME280;36670;50.094;8.496;2023-03-14T00:09:23;98416.75;;;12.07;74.77
50702;BME280;36670;50.094;8.496;2023-03-14T00:11:49;98414.81;;;12.07;74.55
50702;BME280;36670;50.094;8.496;2023-03-14T00:14:14;98411.97;;;11.99;75.11
50702;BME280;36670;50.094;8.496;2023-03-14T00:16:40;98419.72;;;11.97;75.06
50702;BME280;36670;50.094;8.496;2023-03-14T00:19:06;98417.25;;;11.81;75.46
50702;BME280;36670;50.094;8.496;2023-03-14T00:21:31;98423.63;;;11.95;74.91
50702;BME280;36670;50.094;8.496;2023-03-14T00:23:56;98419.63;;;12.02;75.22
50702;BME280;36670;50.094;8.496;2023-03-14T00:26:22;98411.81;;;12.04;74.50
50702;BME280;36670;50.094;8.496;2023-03-14T00:28:51;98400.75;;;11.76;75.55
50702;BME280;36670;50.094;8.496;2023-03-14T00:31:17;98410.91;;;11.81;74.93
50702;BME280;36670;50.094;8.496;2023-03-14T00:33:43;98413.13;;;11.78;74.87
50702;BME280;36670;50.094;8.496;2023-03-14T00:36:11;98400.66;;;11.81;75.39
50702;BME280;36670;50.094;8.496;2023-03-14T00:38:38;98408.31;;;11.84;74.45
50702;BME280;36670;50.094;8.496;2023-03-14T00:41:09;98395.66;;;11.83;74.54
50702;BME280;36670;50.094;8.496;2023-03-14T00:43:34;98380.09;;;12.01;74.13
50702;BME280;36670;50.094;8.496;2023-03-14T00:46:00;98374.09;;;12.22;73.46
50702;BME280;36670;50.094;8.496;2023-03-14T00:48:25;98367.72;;;11.99;73.68
50702;BME280;36670;50.094;8.496;2023-03-14T00:50:50;98367.88;;;12.02;73.20
50702;BME280;36670;50.094;8.496;2023-03-14T00:53:16;98348.19;;;11.90;73.26
50702;BME280;36670;50.094;8.496;2023-03-14T00:55:43;98335.31;;;11.85;74.04
50702;BME280;36670;50.094;8.496;2023-03-14T00:58:09;98333.25;;;12.05;73.39
50702;BME280;36670;50.094;8.496;2023-03-14T01:00:35;98331.53;;;11.95;73.39
50702;BME280;36670;50.094;8.496;2023-03-14T01:03:01;98340.75;;;11.90;73.39
50702;BME280;36670;50.094;8.496;2023-03-14T01:05:27;98341.16;;;11.98;72.46
50702;BME280;36670;50.094;8.496;2023-03-14T01:07:52;98352.53;;;11.96;72.94
50702;BME280;36670;50.094;8.496;2023-03-14T01:10:18;98352.31;;;11.92;72.61
50702;BME280;36670;50.094;8.496;2023-03-14T01:12:43;98355.06;;;12.06;72.25
50702;BME280;36670;50.094;8.496;2023-03-14T01:15:09;98355.88;;;12.21;72.30
50702;BME280;36670;50.094;8.496;2023-03-14T01:17:34;98361.22;;;12.03;71.80
50702;BME280;36670;50.094;8.496;2023-03-14T01:20:00;98380.41;;;11.86;72.29
50702;BME280;36670;50.094;8.496;2023-03-14T01:22:26;98366.69;;;11.94;71.54
50702;BME280;36670;50.094;8.496;2023-03-14T01:24:51;98349.16;;;11.85;71.84
50702;BME280;36670;50.094;8.496;2023-03-14T01:27:16;98344.25;;;11.96;71.98
50702;BME280;36670;50.094;8.496;2023-03-14T01:29:41;98336.16;;;12.00;71.65
50702;BME280;36670;50.094;8.496;2023-03-14T01:32:07;98322.34;;;11.86;72.01
50702;BME280;36670;50.094;8.496;2023-03-14T01:34:32;98332.66;;;11.94;71.56
50702;BME280;36670;50.094;8.496;2023-03-14T01:36:57;98331.22;;;11.83;71.35
50702;BME280;36670;50.094;8.496;2023-03-14T01:39:23;98340.97;;;11.94;71.63
50702;BME280;36670;50.094;8.496;2023-03-14T01:41:48;98334.31;;;11.95;71.36
50702;BME280;36670;50.094;8.496;2023-03-14T01:44:13;98334.59;;;11.93;71.64
50702;BME280;36670;50.094;8.496;2023-03-14T01:46:41;98323.63;;;12.02;70.73
50702;BME280;36670;50.094;8.496;2023-03-14T01:54:40;98311.44;;;12.03;70.47
50702;BME280;36670;50.094;8.496;2023-03-14T01:57:17;98313.78;;;12.10;70.56
50702;BME280;36670;50.094;8.496;2023-03-14T02:00:00;98296.28;;;11.87;70.46
50702;BME280;36670;50.094;8.496;2023-03-14T02:02:29;98283.47;;;11.91;70.67
50702;BME280;36670;50.094;8.496;2023-03-14T02:04:55;98289.84;;;11.91;70.64
50702;BME280;36670;50.094;8.496;2023-03-14T02:07:30;98294.97;;;11.84;71.18
50702;BME280;36670;50.094;8.496;2023-03-14T02:09:59;98279.06;;;11.90;70.89
50702;BME280;36670;50.094;8.496;2023-03-14T02:12:25;98269.97;;;11.89;70.74
50702;BME280;36670;50.094;8.496;2023-03-14T02:14:51;98261.88;;;11.93;71.18
50702;BME280;36670;50.094;8.496;2023-03-14T02:17:18;98264.38;;;11.81;71.36
50702;BME280;36670;50.094;8.496;2023-03-14T02:20:07;98268.34;;;11.88;71.84
50702;BME280;36670;50.094;8.496;2023-03-14T02:22:35;98264.38;;;11.81;71.59
50702;BME280;36670;50.094;8.496;2023-03-14T02:25:10;98259.22;;;11.88;71.17
50702;BME280;36670;50.094;8.496;2023-03-14T02:27:38;98250.88;;;11.79;72.29
50702;BME280;36670;50.094;8.496;2023-03-14T02:30:11;98249.31;;;11.73;71.99
50702;BME280;36670;50.094;8.496;2023-03-14T02:32:40;98253.06;;;11.91;71.83
50702;BME280;36670;50.094;8.496;2023-03-14T02:35:09;98248.28;;;11.83;71.88
50702;BME280;36670;50.094;8.496;2023-03-14T02:37:40;98238.88;;;11.84;71.68
50702;BME280;36670;50.094;8.496;2023-03-14T02:40:06;98237.16;;;11.74;71.64
50702;BME280;36670;50.094;8.496;2023-03-14T02:42:32;98239.22;;;11.68;71.60
50702;BME280;36670;50.094;8.496;2023-03-14T02:47:49;98256.81;;;11.72;71.05
50702;BME280;36670;50.094;8.496;2023-03-14T02:50:20;98269.50;;;11.73;71.59
50702;BME280;36670;50.094;8.496;2023-03-14T02:52:46;98274.53;;;11.71;71.33
50702;BME280;36670;50.094;8.496;2023-03-14T02:55:11;98272.03;;;11.84;70.85
50702;BME280;36670;50.094;8.496;2023-03-14T02:57:36;98260.97;;;11.84;71.51
50702;BME280;36670;50.094;8.496;2023-03-14T03:00:02;98263.94;;;11.87;70.94
50702;BME280;36670;50.094;8.496;2023-03-14T03:02:31;98246.25;;;11.74;71.51
50702;BME280;36670;50.094;8.496;2023-03-14T03:04:57;98243.38;;;11.79;70.67
50702;BME280;36670;50.094;8.496;2023-03-14T03:07:23;98266.19;;;11.85;71.11
50702;BME280;36670;50.094;8.496;2023-03-14T03:09:49;98272.16;;;11.78;71.09
50702;BME280;36670;50.094;8.496;2023-03-14T03:12:14;98257.81;;;11.76;70.87
50702;BME280;36670;50.094;8.496;2023-03-14T03:14:39;98260.69;;;11.71;70.63
50702;BME280;36670;50.094;8.496;2023-03-14T03:17:05;98279.41;;;11.88;70.80
50702;BME280;36670;50.094;8.496;2023-03-14T03:19:31;98257.63;;;11.73;70.99
50702;BME280;36670;50.094;8.496;2023-03-14T03:21:57;98261.78;;;11.84;71.03
50702;BME280;36670;50.094;8.496;2023-03-14T03:24:23;98253.69;;;11.88;70.18
50702;BME280;36670;50.094;8.496;2023-03-14T03:26:48;98252.19;;;11.95;70.61
50702;BME280;36670;50.094;8.496;2023-03-14T03:29:13;98252.75;;;11.92;70.62
50702;BME280;36670;50.094;8.496;2023-03-14T03:31:39;98244.59;;;11.87;70.79
50702;BME280;36670;50.094;8.496;2023-03-14T03:34:04;98231.69;;;11.83;70.73
50702;BME280;36670;50.094;8.496;2023-03-14T03:36:29;98235.88;;;11.80;70.61
50702;BME280;36670;50.094;8.496;2023-03-14T03:38:55;98217.06;;;11.82;70.29
50702;BME280;36670;50.094;8.496;2023-03-14T03:41:20;98233.72;;;11.91;70.44
50702;BME280;36670;50.094;8.496;2023-03-14T03:43:45;98236.88;;;11.98;69.95
50702;BME280;36670;50.094;8.496;2023-03-14T03:46:10;98222.25;;;11.98;69.83
50702;BME280;36670;50.094;8.496;2023-03-14T03:48:36;98216.09;;;12.01;70.77
50702;BME280;36670;50.094;8.496;2023-03-14T03:51:01;98197.06;;;11.85;69.94
50702;BME280;36670;50.094;8.496;2023-03-14T03:53:27;98196.03;;;11.95;70.39
50702;BME280;36670;50.094;8.496;2023-03-14T03:55:52;98172.81;;;11.82;69.74
50702;BME280;36670;50.094;8.496;2023-03-14T03:58:18;98178.66;;;11.81;70.46
50702;BME280;36670;50.094;8.496;2023-03-14T04:00:43;98160.22;;;11.76;70.32
50702;BME280;36670;50.094;8.496;2023-03-14T04:03:08;98185.38;;;11.88;70.22
50702;BME280;36670;50.094;8.496;2023-03-14T04:05:34;98169.28;;;12.04;70.23
50702;BME280;36670;50.094;8.496;2023-03-14T04:08:00;98182.53;;;12.16;69.40
50702;BME280;36670;50.094;8.496;2023-03-14T04:10:25;98174.44;;;11.97;69.72
50702;BME280;36670;50.094;8.496;2023-03-14T04:12:50;98184.66;;;11.97;69.77
50702;BME280;36670;50.094;8.496;2023-03-14T04:15:15;98186.94;;;11.94;70.51
50702;BME280;36670;50.094;8.496;2023-03-14T04:17:41;98187.22;;;11.93;69.61
50702;BME280;36670;50.094;8.496;2023-03-14T04:20:07;98174.91;;;11.76;70.14
50702;BME280;36670;50.094;8.496;2023-03-14T04:22:36;98183.63;;;11.92;70.45
50702;BME280;36670;50.094;8.496;2023-03-14T04:25:01;98180.56;;;11.94;70.48
50702;BME280;36670;50.094;8.496;2023-03-14T04:27:28;98184.50;;;11.79;70.41
50702;BME280;36670;50.094;8.496;2023-03-14T04:29:54;98178.47;;;11.77;70.85
50702;BME280;36670;50.094;8.496;2023-03-14T04:32:19;98173.03;;;11.86;70.54
50702;BME280;36670;50.094;8.496;2023-03-14T04:34:45;98183.25;;;11.85;69.64
50702;BME280;36670;50.094;8.496;2023-03-14T04:37:10;98152.47;;;11.78;69.87
50702;BME280;36670;50.094;8.496;2023-03-14T04:39:35;98178.16;;;11.78;70.30
50702;BME280;36670;50.094;8.496;2023-03-14T04:42:01;98173.91;;;11.95;69.54
50702;BME280;36670;50.094;8.496;2023-03-14T04:44:26;98156.41;;;11.63;70.45
50702;BME280;36670;50.094;8.496;2023-03-14T04:46:51;98168.66;;;11.71;70.51
50702;BME280;36670;50.094;8.496;2023-03-14T04:49:17;98163.19;;;11.79;69.93
50702;BME280;36670;50.094;8.496;2023-03-14T04:51:42;98162.19;;;11.75;70.17
50702;BME280;36670;50.094;8.496;2023-03-14T04:54:07;98154.72;;;11.76;70.19
50702;BME280;36670;50.094;8.496;2023-03-14T04:56:33;98164.91;;;11.89;70.00
50702;BME280;36670;50.094;8.496;2023-03-14T04:58:58;98154.56;;;11.95;69.48
50702;BME280;36670;50.094;8.496;2023-03-14T05:01:23;98152.63;;;11.95;68.65
50702;BME280;36670;50.094;8.496;2023-03-14T05:03:49;98154.75;;;11.99;68.86
50702;BME280;36670;50.094;8.496;2023-03-14T05:06:14;98156.91;;;12.02;69.28
50702;BME280;36670;50.094;8.496;2023-03-14T05:08:39;98155.44;;;11.82;69.68
50702;BME280;36670;50.094;8.496;2023-03-14T05:11:05;98162.03;;;11.72;69.27
50702;BME280;36670;50.094;8.496;2023-03-14T05:13:30;98158.72;;;11.70;70.26
50702;BME280;36670;50.094;8.496;2023-03-14T05:16:04;98149.94;;;11.68;68.93
50702;BME280;36670;50.094;8.496;2023-03-14T05:18:29;98150.19;;;11.80;69.12
50702;BME280;36670;50.094;8.496;2023-03-14T05:20:54;98144.06;;;11.83;69.29
50702;BME280;36670;50.094;8.496;2023-03-14T05:23:19;98136.56;;;11.84;68.84
50702;BME280;36670;50.094;8.496;2023-03-14T05:25:45;98148.69;;;11.74;68.88
50702;BME280;36670;50.094;8.496;2023-03-14T05:28:10;98143.28;;;11.69;69.02
50702;BME280;36670;50.094;8.496;2023-03-14T05:30:35;98138.00;;;11.58;69.60
50702;BME280;36670;50.094;8.496;2023-03-14T05:33:00;98131.78;;;11.53;69.33
50702;BME280;36670;50.094;8.496;2023-03-14T05:35:26;98148.31;;;11.67;68.66
50702;BME280;36670;50.094;8.496;2023-03-14T05:37:51;98136.19;;;11.54;69.18
50702;BME280;36670;50.094;8.496;2023-03-14T05:40:16;98150.69;;;11.59;69.52
50702;BME280;36670;50.094;8.496;2023-03-14T05:42:42;98136.78;;;11.51;69.41
50702;BME280;36670;50.094;8.496;2023-03-14T05:45:07;98137.13;;;11.72;68.44
50702;BME280;36670;50.094;8.496;2023-03-14T05:47:32;98129.41;;;11.60;68.62
50702;BME280;36670;50.094;8.496;2023-03-14T05:49:58;98117.84;;;11.58;68.68
50702;BME280;36670;50.094;8.496;2023-03-14T05:52:23;98115.47;;;11.65;69.14
50702;BME280;36670;50.094;8.496;2023-03-14T05:54:48;98105.66;;;11.59;68.67
50702;BME280;36670;50.094;8.496;2023-03-14T05:57:13;98101.56;;;11.56;68.85
50702;BME280;36670;50.094;8.496;2023-03-14T05:59:39;98106.91;;;11.53;69.08
50702;BME280;36670;50.094;8.496;2023-03-14T06:02:04;98108.97;;;11.47;69.17
50702;BME280;36670;50.094;8.496;2023-03-14T06:04:29;98112.00;;;11.59;68.91
50702;BME280;36670;50.094;8.496;2023-03-14T06:06:55;98110.16;;;11.55;68.87
50702;BME280;36670;50.094;8.496;2023-03-14T06:09:20;98107.28;;;11.60;67.93
50702;BME280;36670;50.094;8.496;2023-03-14T06:11:47;98118.09;;;11.70;68.48
50702;BME280;36670;50.094;8.496;2023-03-14T06:14:13;98118.28;;;11.74;68.05
50702;BME280;36670;50.094;8.496;2023-03-14T06:16:38;98119.41;;;11.73;67.50
50702;BME280;36670;50.094;8.496;2023-03-14T06:19:03;98115.50;;;11.74;67.90
50702;BME280;36670;50.094;8.496;2023-03-14T06:21:29;98114.75;;;11.82;68.39
50702;BME280;36670;50.094;8.496;2023-03-14T06:23:54;98094.09;;;11.79;67.53
50702;BME280;36670;50.094;8.496;2023-03-14T06:26:19;98113.69;;;11.92;67.35
50702;BME280;36670;50.094;8.496;2023-03-14T06:28:45;98117.03;;;12.03;67.72
50702;BME280;36670;50.094;8.496;2023-03-14T06:31:10;98114.00;;;11.90;67.49
50702;BME280;36670;50.094;8.496;2023-03-14T06:33:35;98117.53;;;12.05;67.27
50702;BME280;36670;50.094;8.496;2023-03-14T06:36:00;98122.91;;;12.01;67.94
50702;BME280;36670;50.094;8.496;2023-03-14T06:38:26;98123.69;;;12.02;67.60
50702;BME280;36670;50.094;8.496;2023-03-14T06:40:51;98112.19;;;12.08;67.11
50702;BME280;36670;50.094;8.496;2023-03-14T06:43:16;98125.13;;;12.22;67.25
50702;BME280;36670;50.094;8.496;2023-03-14T06:45:41;98122.31;;;12.13;66.90
50702;BME280;36670;50.094;8.496;2023-03-14T06:48:07;98116.53;;;12.01;67.37
50702;BME280;36670;50.094;8.496;2023-03-14T06:50:32;98125.56;;;11.92;67.55
50702;BME280;36670;50.094;8.496;2023-03-14T06:52:57;98098.88;;;11.88;67.61
50702;BME280;36670;50.094;8.496;2023-03-14T06:55:22;98108.38;;;11.95;67.44
50702;BME280;36670;50.094;8.496;2023-03-14T06:57:48;98097.75;;;11.89;66.95
50702;BME280;36670;50.094;8.496;2023-03-14T07:00:13;98097.91;;;11.92;67.20
50702;BME280;36670;50.094;8.496;2023-03-14T07:02:39;98098.13;;;11.96;66.62
50702;BME280;36670;50.094;8.496;2023-03-14T07:05:05;98075.41;;;11.85;67.40
50702;BME280;36670;50.094;8.496;2023-03-14T07:07:31;98090.75;;;11.91;67.40
50702;BME280;36670;50.094;8.496;2023-03-14T07:09:56;98095.78;;;11.89;66.67
50702;BME280;36670;50.094;8.496;2023-03-14T07:12:21;98089.84;;;11.96;67.23
50702;BME280;36670;50.094;8.496;2023-03-14T07:14:47;98087.69;;;11.93;67.08
50702;BME280;36670;50.094;8.496;2023-03-14T07:17:12;98092.97;;;12.03;67.16
50702;BME280;36670;50.094;8.496;2023-03-14T07:19:38;98091.41;;;12.11;66.58
50702;BME280;36670;50.094;8.496;2023-03-14T07:22:04;98092.31;;;12.06;67.15
50702;BME280;36670;50.094;8.496;2023-03-14T07:24:30;98108.22;;;12.01;66.77
50702;BME280;36670;50.094;8.496;2023-03-14T07:26:55;98104.97;;;11.99;66.81
50702;BME280;36670;50.094;8.496;2023-03-14T07:29:20;98105.34;;;12.06;67.05
50702;BME280;36670;50.094;8.496;2023-03-14T07:31:46;98119.63;;;11.99;67.47
50702;BME280;36670;50.094;8.496;2023-03-14T07:34:11;98117.53;;;12.05;66.70
50702;BME280;36670;50.094;8.496;2023-03-14T07:36:36;98118.16;;;12.02;67.42
50702;BME280;36670;50.094;8.496;2023-03-14T07:39:02;98120.19;;;12.10;66.75
50702;BME280;36670;50.094;8.496;2023-03-14T07:41:27;98105.91;;;11.94;67.13
50702;BME280;36670;50.094;8.496;2023-03-14T07:43:52;98119.97;;;12.06;67.13
50702;BME280;36670;50.094;8.496;2023-03-14T07:46:18;98116.91;;;12.08;66.73
50702;BME280;36670;50.094;8.496;2023-03-14T07:48:43;98101.50;;;11.93;67.03
50702;BME280;36670;50.094;8.496;2023-03-14T07:51:08;98109.75;;;12.07;67.27
50702;BME280;36670;50.094;8.496;2023-03-14T07:53:34;98123.91;;;12.05;67.15
50702;BME280;36670;50.094;8.496;2023-03-14T07:55:59;98123.63;;;12.16;67.75
50702;BME280;36670;50.094;8.496;2023-03-14T07:58:24;98122.34;;;12.22;67.54
50702;BME280;36670;50.094;8.496;2023-03-14T08:00:51;98127.31;;;12.34;67.07
50702;BME280;36670;50.094;8.496;2023-03-14T08:03:16;98120.22;;;12.19;67.92
50702;BME280;36670;50.094;8.496;2023-03-14T08:05:42;98119.28;;;12.23;67.27
50702;BME280;36670;50.094;8.496;2023-03-14T08:08:08;98117.38;;;12.33;67.18
50702;BME280;36670;50.094;8.496;2023-03-14T08:10:33;98109.72;;;12.29;66.41
50702;BME280;36670;50.094;8.496;2023-03-14T08:13:00;98112.72;;;12.51;66.73
50702;BME280;36670;50.094;8.496;2023-03-14T08:15:26;98113.06;;;12.49;67.00
50702;BME280;36670;50.094;8.496;2023-03-14T08:17:52;98113.69;;;12.46;67.10
50702;BME280;36670;50.094;8.496;2023-03-14T08:20:23;98105.94;;;12.25;66.94
50702;BME280;36670;50.094;8.496;2023-03-14T08:22:49;98106.25;;;12.24;66.73
50702;BME280;36670;50.094;8.496;2023-03-14T08:25:15;98114.28;;;12.34;67.66
50702;BME280;36670;50.094;8.496;2023-03-14T08:27:41;98127.78;;;12.36;67.62
50702;BME280;36670;50.094;8.496;2023-03-14T08:30:09;98124.63;;;12.20;67.57
50702;BME280;36670;50.094;8.496;2023-03-14T08:32:35;98118.84;;;12.07;67.94
50702;BME280;36670;50.094;8.496;2023-03-14T08:35:00;98122.75;;;12.06;68.54
50702;BME280;36670;50.094;8.496;2023-03-14T08:37:26;98121.13;;;12.05;68.27
50702;BME280;36670;50.094;8.496;2023-03-14T08:39:52;98112.16;;;12.00;67.99
50702;BME280;36670;50.094;8.496;2023-03-14T08:42:18;98116.44;;;12.15;68.53
50702;BME280;36670;50.094;8.496;2023-03-14T08:44:43;98120.09;;;12.24;67.95
50702;BME280;36670;50.094;8.496;2023-03-14T08:47:09;98123.75;;;12.42;68.70
50702;BME280;36670;50.094;8.496;2023-03-14T08:49:34;98119.47;;;12.67;68.49
50702;BME280;36670;50.094;8.496;2023-03-14T08:52:02;98120.94;;;12.73;67.69
50702;BME280;36670;50.094;8.496;2023-03-14T08:54:27;98125.09;;;13.02;67.22
50702;BME280;36670;50.094;8.496;2023-03-14T08:56:52;98111.41;;;12.97;66.87
50702;BME280;36670;50.094;8.496;2023-03-14T08:59:18;98114.22;;;13.06;66.78
50702;BME280;36670;50.094;8.496;2023-03-14T09:01:43;98107.22;;;13.08;66.39
50702;BME280;36670;50.094;8.496;2023-03-14T09:04:09;98117.75;;;12.89;66.59
50702;BME280;36670;50.094;8.496;2023-03-14T09:06:35;98119.75;;;13.06;66.66
50702;BME280;36670;50.094;8.496;2023-03-14T09:09:00;98126.28;;;13.10;66.59
50702;BME280;36670;50.094;8.496;2023-03-14T09:11:26;98106.09;;;13.27;65.78
50702;BME280;36670;50.094;8.496;2023-03-14T09:13:51;98109.72;;;13.36;64.38
50702;BME280;36670;50.094;8.496;2023-03-14T09:16:17;98113.41;;;13.31;64.78
50702;BME280;36670;50.094;8.496;2023-03-14T09:18:42;98108.88;;;13.36;64.98
50702;BME280;36670;50.094;8.496;2023-03-14T09:21:07;98108.59;;;13.46;64.95
50702;BME280;36670;50.094;8.496;2023-03-14T09:23:33;98104.97;;;13.45;64.59
50702;BME280;36670;50.094;8.496;2023-03-14T09:25:59;98113.31;;;13.54;64.84
50702;BME280;36670;50.094;8.496;2023-03-14T09:28:24;98118.38;;;13.43;64.17
50702;BME280;36670;50.094;8.496;2023-03-14T09:30:50;98134.34;;;13.38;65.40
50702;BME280;36670;50.094;8.496;2023-03-14T09:33:16;98132.38;;;13.47;64.84
50702;BME280;36670;50.094;8.496;2023-03-14T09:35:41;98131.38;;;13.43;64.62
50702;BME280;36670;50.094;8.496;2023-03-14T09:38:06;98129.91;;;13.28;65.28
50702;BME280;36670;50.094;8.496;2023-03-14T09:40:35;98140.13;;;13.19;65.15
50702;BME280;36670;50.094;8.496;2023-03-14T09:43:01;98113.56;;;13.00;65.72
50702;BME280;36670;50.094;8.496;2023-03-14T09:45:38;98126.44;;;13.13;66.10
50702;BME280;36670;50.094;8.496;2023-03-14T09:48:06;98131.16;;;13.13;66.02
50702;BME280;36670;50.094;8.496;2023-03-14T09:50:40;98124.00;;;13.21;65.84
50702;BME280;36670;50.094;8.496;2023-03-14T09:53:14;98125.03;;;13.42;66.17
50702;BME280;36670;50.094;8.496;2023-03-14T09:55:43;98122.91;;;13.83;64.72
50702;BME280;36670;50.094;8.496;2023-03-14T09:58:13;98120.44;;;14.08;64.66
50702;BME280;36670;50.094;8.496;2023-03-14T10:00:40;98117.09;;;14.41;64.82
50702;BME280;36670;50.094;8.496;2023-03-14T10:05:33;98118.59;;;14.29;63.49
50702;BME280;36670;50.094;8.496;2023-03-14T10:07:59;98119.56;;;14.25;62.45
50702;BME280;36670;50.094;8.496;2023-03-14T10:10:26;98123.84;;;14.13;62.88
50702;BME280;36670;50.094;8.496;2023-03-14T10:12:56;98127.94;;;14.16;62.55
50702;BME280;36670;50.094;8.496;2023-03-14T10:15:30;98107.88;;;14.10;62.09
50702;BME280;36670;50.094;8.496;2023-03-14T10:17:59;98126.13;;;14.20;62.56
50702;BME280;36670;50.094;8.496;2023-03-14T10:20:36;98113.25;;;14.15;63.05
50702;BME280;36670;50.094;8.496;2023-03-14T10:23:04;98114.88;;;14.08;62.93
50702;BME280;36670;50.094;8.496;2023-03-14T10:25:33;98118.50;;;13.99;62.52
50702;BME280;36670;50.094;8.496;2023-03-14T10:27:59;98122.06;;;14.09;63.33
50702;BME280;36670;50.094;8.496;2023-03-14T10:30:33;98120.63;;;13.94;63.42
50702;BME280;36670;50.094;8.496;2023-03-14T10:33:08;98110.22;;;13.82;64.12
50702;BME280;36670;50.094;8.496;2023-03-14T10:35:35;98113.94;;;13.77;65.04
50702;BME280;36670;50.094;8.496;2023-03-14T10:38:02;98126.69;;;13.78;64.74
50702;BME280;36670;50.094;8.496;2023-03-14T10:40:33;98124.38;;;13.72;64.83
50702;BME280;36670;50.094;8.496;2023-03-14T10:43:00;98139.22;;;13.76;65.44
50702;BME280;36670;50.094;8.496;2023-03-14T10:45:41;98129.78;;;13.77;65.63
50702;BME280;36670;50.094;8.496;2023-03-14T10:53:25;98123.59;;;13.36;67.19
50702;BME280;36670;50.094;8.496;2023-03-14T10:55:51;98128.78;;;13.46;67.16
50702;BME280;36670;50.094;8.496;2023-03-14T10:58:23;98126.03;;;13.55;66.45
50702;BME280;36670;50.094;8.496;2023-03-14T11:00:55;98129.94;;;13.45;67.02
50702;BME280;36670;50.094;8.496;2023-03-14T11:03:23;98125.50;;;13.27;67.17
50702;BME280;36670;50.094;8.496;2023-03-14T11:05:56;98116.78;;;13.02;67.65
50702;BME280;36670;50.094;8.496;2023-03-14T11:08:45;98122.47;;;12.88;68.65
50702;BME280;36670;50.094;8.496;2023-03-14T11:11:29;98127.06;;;13.02;68.84
50702;BME280;36670;50.094;8.496;2023-03-14T11:14:22;98137.38;;;13.19;68.83
50702;BME280;36670;50.094;8.496;2023-03-14T11:17:21;98128.25;;;13.18;68.92
50702;BME280;36670;50.094;8.496;2023-03-14T11:22:47;98146.47;;;13.02;69.56
50702;BME280;36670;50.094;8.496;2023-03-14T11:25:21;98143.03;;;13.05;70.21
50702;BME280;36670;50.094;8.496;2023-03-14T11:28:09;98145.00;;;13.04;70.40
50702;BME280;36670;50.094;8.496;2023-03-14T11:33:38;98143.72;;;13.10;70.38
50702;BME280;36670;50.094;8.496;2023-03-14T11:36:06;98139.16;;;13.14;70.30
50702;BME280;36670;50.094;8.496;2023-03-14T11:38:40;98141.13;;;13.23;70.22
50702;BME280;36670;50.094;8.496;2023-03-14T11:41:16;98143.88;;;13.14;70.33
50702;BME280;36670;50.094;8.496;2023-03-14T11:43:54;98126.63;;;13.26;70.45
50702;BME280;36670;50.094;8.496;2023-03-14T11:46:26;98146.22;;;13.47;70.34
50702;BME280;36670;50.094;8.496;2023-03-14T11:51:46;98167.09;;;13.36;70.81
50702;BME280;36670;50.094;8.496;2023-03-14T11:54:22;98147.22;;;13.51;70.38
50702;BME280;36670;50.094;8.496;2023-03-14T11:56:55;98155.22;;;13.61;71.29
50702;BME280;36670;50.094;8.496;2023-03-14T12:02:22;98300.19;;;13.22;70.88
50702;BME280;36670;50.094;8.496;2023-03-14T12:05:10;98284.47;;;11.58;66.99
50702;BME280;36670;50.094;8.496;2023-03-14T12:10:29;98288.41;;;10.36;69.21
50702;BME280;36670;50.094;8.496;2023-03-14T12:12:55;98285.34;;;10.37;69.05
50702;BME280;36670;50.094;8.496;2023-03-14T12:15:22;98280.47;;;10.48;70.29
50702;BME280;36670;50.094;8.496;2023-03-14T12:17:54;98294.72;;;10.55;69.40
50702;BME280;36670;50.094;8.496;2023-03-14T12:20:22;98304.94;;;10.69;69.17
50702;BME280;36670;50.094;8.496;2023-03-14T12:22:52;98309.38;;;10.84;69.69
50702;BME280;36670;50.094;8.496;2023-03-14T12:25:37;98346.69;;;10.81;69.02
50702;BME280;36670;50.094;8.496;2023-03-14T12:28:12;98354.91;;;10.86;69.25
50702;BME280;36670;50.094;8.496;2023-03-14T12:30:41;98339.75;;;10.84;70.39
50702;BME280;36670;50.094;8.496;2023-03-14T12:35:39;98358.06;;;11.26;67.74
50702;BME280;36670;50.094;8.496;2023-03-14T12:38:09;98368.91;;;11.37;66.76
50702;BME280;36670;50.094;8.496;2023-03-14T12:40:39;98367.69;;;11.57;66.59
50702;BME280;36670;50.094;8.496;2023-03-14T12:43:25;98387.34;;;11.83;65.48
50702;BME280;36670;50.094;8.496;2023-03-14T12:48:49;98406.91;;;12.15;64.30
50702;BME280;36670;50.094;8.496;2023-03-14T12:51:19;98430.38;;;12.17;61.82
50702;BME280;36670;50.094;8.496;2023-03-14T12:53:54;98429.84;;;11.87;62.99
50702;BME280;36670;50.094;8.496;2023-03-14T12:59:34;98469.00;;;12.08;61.47
50702;BME280;36670;50.094;8.496;2023-03-14T13:04:46;98494.09;;;12.26;60.04
50702;BME280;36670;50.094;8.496;2023-03-14T13:07:34;98516.22;;;11.98;61.17
50702;BME280;36670;50.094;8.496;2023-03-14T13:12:44;98522.59;;;11.99;60.91
50702;BME280;36670;50.094;8.496;2023-03-14T13:15:18;98529.47;;;12.15;60.83
50702;BME280;36670;50.094;8.496;2023-03-14T13:17:47;98533.53;;;12.32;60.11
50702;BME280;36670;50.094;8.496;2023-03-14T13:20:22;98551.16;;;12.50;59.41
50702;BME280;36670;50.094;8.496;2023-03-14T13:22:50;98553.53;;;12.42;60.04
50702;BME280;36670;50.094;8.496;2023-03-14T13:25:16;98559.78;;;12.34;59.85
50702;BME280;36670;50.094;8.496;2023-03-14T13:27:43;98557.53;;;12.36;60.92
50702;BME280;36670;50.094;8.496;2023-03-14T13:30:23;98561.31;;;12.68;60.16
50702;BME280;36670;50.094;8.496;2023-03-14T13:32:51;98576.91;;;12.78;59.76
50702;BME280;36670;50.094;8.496;2023-03-14T13:35:25;98577.72;;;12.78;59.07
50702;BME280;36670;50.094;8.496;2023-03-14T13:37:59;98589.09;;;12.77;58.00
50702;BME280;36670;50.094;8.496;2023-03-14T13:40:30;98590.41;;;12.93;58.68
50702;BME280;36670;50.094;8.496;2023-03-14T13:43:01;98598.81;;;12.88;58.42
50702;BME280;36670;50.094;8.496;2023-03-14T13:45:27;98620.28;;;12.83;57.14
50702;BME280;36670;50.094;8.496;2023-03-14T13:47:53;98643.03;;;12.52;57.87